createdAt,value
2022-10-22T00:00:02.417Z,97.56
2022-10-22T00:01:02.140Z,97.36
2022-10-22T00:02:02.404Z,97.46
2022-10-22T00:03:02.179Z,97.46
2022-10-22T00:04:22.565Z,97.50
2022-10-22T00:05:02.465Z,97.50
2022-10-22T00:06:02.255Z,97.40
2022-10-22T00:07:01.998Z,97.50
2022-10-22T00:08:02.242Z,97.40
2022-10-22T00:09:02.047Z,97.30
2022-10-22T00:10:02.227Z,97.40
2022-10-22T00:11:01.966Z,97.30
2022-10-22T00:12:02.220Z,97.30
2022-10-22T00:13:01.960Z,97.50
2022-10-22T00:14:22.219Z,97.40
2022-10-22T00:15:01.949Z,97.30
2022-10-22T00:16:02.195Z,97.40
2022-10-22T00:17:02.430Z,97.40
2022-10-22T00:18:02.497Z,97.40
2022-10-22T00:19:01.977Z,97.40
2022-10-22T00:20:02.199Z,97.40
2022-10-22T00:21:01.947Z,97.50
2022-10-22T00:22:02.198Z,97.61
2022-10-22T00:23:01.947Z,97.40
2022-10-22T00:24:22.469Z,97.30
2022-10-22T00:25:01.952Z,97.40
2022-10-22T00:26:02.220Z,97.50
2022-10-22T00:27:01.942Z,97.55
2022-10-22T00:28:02.181Z,97.65
2022-10-22T00:29:01.921Z,97.65
2022-10-22T00:30:02.169Z,97.75
2022-10-22T00:31:01.903Z,97.75
2022-10-22T00:32:02.154Z,97.75
2022-10-22T00:33:01.915Z,97.65
2022-10-22T00:34:22.155Z,97.65
2022-10-22T00:35:01.901Z,97.55
2022-10-22T00:36:02.133Z,97.65
2022-10-22T00:37:02.784Z,97.65
2022-10-22T00:38:03.600Z,97.75
2022-10-22T00:39:01.906Z,97.75
2022-10-22T00:40:02.149Z,97.75
2022-10-22T00:42:01.654Z,97.75
2022-10-22T00:43:01.889Z,97.75
2022-10-22T00:44:23.604Z,97.75
2022-10-22T00:45:01.905Z,97.96
2022-10-22T00:46:01.651Z,98.06
2022-10-22T00:47:01.887Z,98.16
2022-10-22T00:48:02.329Z,98.57
2022-10-22T00:49:01.909Z,98.57
2022-10-22T00:50:01.645Z,98.47
2022-10-22T00:51:01.894Z,98.47
2022-10-22T00:52:01.628Z,98.47
2022-10-22T00:53:01.860Z,98.36
2022-10-22T00:54:21.619Z,98.36
2022-10-22T00:55:01.965Z,98.36
2022-10-22T00:56:01.746Z,98.36
2022-10-22T00:57:02.454Z,98.36
2022-10-22T00:58:01.798Z,98.47
2022-10-22T00:59:02.537Z,98.47
2022-10-22T01:00:11.004Z,98.47
2022-10-22T01:01:02.005Z,98.36
2022-10-22T01:02:01.516Z,98.36
2022-10-22T01:03:01.762Z,98.47
2022-10-22T01:04:21.563Z,98.68
2022-10-22T01:05:01.760Z,98.68
2022-10-22T01:06:01.510Z,98.68
2022-10-22T01:07:01.755Z,98.68
2022-10-22T01:08:01.641Z,98.68
2022-10-22T01:09:01.791Z,98.68
2022-10-22T01:10:01.489Z,98.68
2022-10-22T01:11:01.732Z,98.68
2022-10-22T01:12:01.497Z,98.57
2022-10-22T01:13:01.723Z,98.47
2022-10-22T01:14:21.485Z,98.47
2022-10-22T01:15:01.705Z,98.47
2022-10-22T01:16:01.451Z,98.47
2022-10-22T01:17:01.713Z,98.68
2022-10-22T01:18:01.462Z,98.57
2022-10-22T01:19:03.145Z,98.57
2022-10-22T01:20:01.913Z,98.68
2022-10-22T01:21:01.706Z,98.57
2022-10-22T01:22:01.445Z,98.77
2022-10-22T01:23:01.685Z,98.77
2022-10-22T01:24:22.315Z,98.77
2022-10-22T01:25:01.231Z,98.68
2022-10-22T01:26:01.501Z,98.77
2022-10-22T01:27:01.245Z,98.77
2022-10-22T01:28:01.497Z,98.77
2022-10-22T01:29:01.226Z,98.77
2022-10-22T01:30:01.479Z,98.77
2022-10-22T01:31:01.239Z,98.98
2022-10-22T01:32:01.473Z,98.98
2022-10-22T01:33:01.217Z,99.08
2022-10-22T01:34:21.859Z,99.08
2022-10-22T01:35:01.232Z,98.98
2022-10-22T01:36:01.467Z,98.98
2022-10-22T01:37:01.227Z,99.08
2022-10-22T01:38:01.483Z,99.08
2022-10-22T01:39:01.306Z,99.08
2022-10-22T01:40:02.919Z,99.08
2022-10-22T01:41:01.233Z,98.98
2022-10-22T01:42:01.478Z,98.88
2022-10-22T01:43:01.231Z,98.88
2022-10-22T01:44:21.555Z,98.88
2022-10-22T01:45:01.222Z,98.88
2022-10-22T01:46:01.486Z,98.88
2022-10-22T01:47:01.221Z,98.88
2022-10-22T01:48:01.448Z,98.98
2022-10-22T01:49:01.204Z,98.98
2022-10-22T01:50:01.444Z,99.02
2022-10-22T01:51:01.198Z,98.98
2022-10-22T01:52:01.422Z,98.88
2022-10-22T01:53:01.171Z,98.93
2022-10-22T01:54:21.440Z,98.93
2022-10-22T01:55:00.383Z,98.93
2022-10-22T01:56:01.131Z,98.82
2022-10-22T01:57:01.374Z,98.93
2022-10-22T01:58:01.115Z,98.93
2022-10-22T01:59:02.407Z,98.93
2022-10-22T02:00:02.117Z,98.82
2022-10-22T02:01:00.969Z,98.93
2022-10-22T02:02:01.162Z,99.02
2022-10-22T02:03:00.888Z,98.93
2022-10-22T02:04:21.135Z,98.93
2022-10-22T02:05:00.294Z,98.93
2022-10-22T02:06:01.035Z,98.93
2022-10-22T02:07:00.776Z,99.02
2022-10-22T02:08:01.074Z,98.93
2022-10-22T02:09:01.388Z,98.82
2022-10-22T02:10:01.122Z,98.82
2022-10-22T02:11:00.903Z,98.93
2022-10-22T02:12:01.210Z,98.93
2022-10-22T02:13:00.952Z,99.13
2022-10-22T02:14:21.216Z,99.13
2022-10-22T02:15:00.983Z,99.13
2022-10-22T02:16:00.754Z,99.23
2022-10-22T02:17:01.054Z,99.33
2022-10-22T02:18:02.254Z,99.33
2022-10-22T02:19:01.123Z,99.33
2022-10-22T02:20:02.323Z,99.33
2022-10-22T02:21:02.805Z,99.23
2022-10-22T02:22:00.965Z,99.33
2022-10-22T02:23:00.775Z,99.38
2022-10-22T02:24:21.035Z,99.38
2022-10-22T02:25:00.787Z,99.27
2022-10-22T02:26:01.026Z,99.27
2022-10-22T02:27:00.784Z,99.27
2022-10-22T02:28:01.056Z,99.18
2022-10-22T02:29:00.929Z,99.18
2022-10-22T02:30:00.704Z,99.27
2022-10-22T02:31:00.887Z,99.27
2022-10-22T02:32:00.667Z,99.18
2022-10-22T02:33:01.196Z,99.18
2022-10-22T02:34:20.702Z,99.27
2022-10-22T02:35:00.940Z,99.18
2022-10-22T02:36:00.788Z,99.18
2022-10-22T02:37:00.524Z,99.18
2022-10-22T02:38:00.772Z,99.18
2022-10-22T02:39:00.595Z,99.18
2022-10-22T02:40:00.940Z,99.27
2022-10-22T02:41:00.847Z,99.38
2022-10-22T02:42:01.198Z,99.38
2022-10-22T02:43:00.649Z,99.38
2022-10-22T02:44:20.893Z,99.48
2022-10-22T02:45:01.599Z,99.48
2022-10-22T02:46:00.390Z,99.79
2022-10-22T02:47:00.634Z,99.79
2022-10-22T02:48:01.827Z,99.89
2022-10-22T02:49:00.634Z,99.89
2022-10-22T02:50:00.386Z,99.89
2022-10-22T02:51:01.416Z,99.89
2022-10-22T02:52:00.376Z,99.89
2022-10-22T02:53:02.104Z,99.99
2022-10-22T02:54:20.434Z,99.99
2022-10-22T02:55:01.366Z,99.99
2022-10-22T02:56:01.935Z,99.99
2022-10-22T02:57:02.259Z,99.99
2022-10-22T02:58:02.009Z,99.99
2022-10-22T02:59:01.792Z,99.99
2022-10-22T03:00:02.093Z,99.99
2022-10-22T03:01:01.405Z,99.99
2022-10-22T03:02:02.205Z,99.99
2022-10-22T03:03:00.626Z,99.99
2022-10-22T03:04:20.360Z,99.99
2022-10-22T03:05:01.173Z,99.99
2022-10-22T03:06:00.880Z,99.99
2022-10-22T03:07:01.761Z,99.99
2022-10-22T03:08:02.049Z,99.99
2022-10-22T03:09:01.405Z,99.99
2022-10-22T03:10:01.631Z,99.99
2022-10-22T03:11:01.903Z,99.99
2022-10-22T03:12:00.878Z,99.99
2022-10-22T03:13:01.956Z,99.99
2022-10-22T03:14:20.275Z,99.99
2022-10-22T03:15:01.978Z,99.99
2022-10-22T03:16:01.761Z,99.99
2022-10-22T03:17:00.887Z,99.99
2022-10-22T03:18:01.863Z,99.99
2022-10-22T03:19:01.643Z,99.99
2022-10-22T03:20:01.930Z,99.99
2022-10-22T03:21:00.980Z,99.99
2022-10-22T03:22:01.533Z,99.99
2022-10-22T03:23:00.883Z,99.99
2022-10-22T03:24:20.141Z,99.99
2022-10-22T03:25:01.855Z,99.99
2022-10-22T03:26:01.647Z,99.99
2022-10-22T03:27:01.916Z,99.99
2022-10-22T03:28:01.712Z,99.99
2022-10-22T03:29:00.910Z,99.99
2022-10-22T03:30:01.763Z,99.99
2022-10-22T03:31:00.778Z,99.99
2022-10-22T03:32:00.405Z,99.99
2022-10-22T03:33:01.591Z,99.99
2022-10-22T03:34:20.407Z,99.99
2022-10-22T03:35:59.955Z,99.99
2022-10-22T03:37:01.683Z,99.99
2022-10-22T03:38:01.475Z,99.99
2022-10-22T03:39:01.756Z,99.99
2022-10-22T03:40:01.544Z,99.99
2022-10-22T03:41:01.314Z,99.99
2022-10-22T03:42:01.118Z,99.99
2022-10-22T03:43:00.630Z,99.99
2022-10-22T03:44:20.207Z,99.99
2022-10-22T03:45:00.907Z,99.99
2022-10-22T03:46:00.932Z,99.99
2022-10-22T03:47:02.750Z,99.99
2022-10-22T03:48:00.771Z,99.99
2022-10-22T03:49:01.556Z,99.99
2022-10-22T03:50:01.382Z,99.99
2022-10-22T03:51:00.426Z,99.99
2022-10-22T03:52:00.408Z,99.99
2022-10-22T03:53:01.251Z,99.99
2022-10-22T03:54:20.065Z,99.99
2022-10-22T03:55:01.258Z,99.99
2022-10-22T03:56:01.034Z,99.99
2022-10-22T03:57:01.298Z,99.99
2022-10-22T03:58:00.159Z,99.99
2022-10-22T03:59:01.356Z,99.99
2022-10-22T04:00:01.157Z,99.99
2022-10-22T04:01:01.510Z,99.99
2022-10-22T04:02:01.218Z,99.99
2022-10-22T04:03:01.514Z,99.99
2022-10-22T04:04:19.842Z,99.99
2022-10-22T04:05:01.636Z,99.99
2022-10-22T04:06:01.381Z,99.99
2022-10-22T04:07:01.174Z,99.99
2022-10-22T04:08:01.446Z,99.99
2022-10-22T04:09:01.287Z,99.99
2022-10-22T04:10:00.435Z,99.99
2022-10-22T04:11:00.551Z,99.99
2022-10-22T04:12:01.093Z,99.99
2022-10-22T04:13:01.359Z,99.99
2022-10-22T04:14:19.696Z,99.99
2022-10-22T04:15:01.394Z,99.99
2022-10-22T04:16:00.417Z,99.99
2022-10-22T04:17:00.487Z,99.99
2022-10-22T04:18:01.266Z,99.99
2022-10-22T04:19:01.055Z,99.99
2022-10-22T04:20:01.362Z,99.99
2022-10-22T04:21:01.170Z,99.99
2022-10-22T04:22:00.452Z,99.99
2022-10-22T04:23:01.233Z,99.99
2022-10-22T04:24:19.579Z,99.99
2022-10-22T04:25:01.278Z,99.99
2022-10-22T04:26:00.589Z,99.99
2022-10-22T04:27:00.368Z,99.99
2022-10-22T04:28:01.163Z,99.99
2022-10-22T04:29:00.950Z,99.99
2022-10-22T04:29:59.821Z,99.99
2022-10-22T04:31:01.042Z,99.99
2022-10-22T04:32:00.829Z,99.99
2022-10-22T04:33:00.439Z,99.99
2022-10-22T04:34:19.419Z,99.99
2022-10-22T04:35:01.134Z,99.99
2022-10-22T04:36:00.905Z,99.99
2022-10-22T04:37:01.230Z,99.99
2022-10-22T04:37:59.970Z,99.99
2022-10-22T04:39:00.777Z,99.99
2022-10-22T04:40:01.086Z,99.99
2022-10-22T04:40:59.474Z,99.99
2022-10-22T04:42:01.140Z,99.99
2022-10-22T04:43:00.931Z,99.99
2022-10-22T04:44:19.760Z,99.99
2022-10-22T04:45:00.474Z,99.99
2022-10-22T04:45:59.983Z,99.99
2022-10-22T04:47:01.080Z,99.99
2022-10-22T04:48:00.852Z,99.99
2022-10-22T04:49:00.648Z,99.99
2022-10-22T04:49:59.949Z,99.99
2022-10-22T04:51:00.698Z,99.99
2022-10-22T04:52:00.995Z,99.99
2022-10-22T04:53:00.770Z,99.99
2022-10-22T04:54:19.585Z,99.99
2022-10-22T04:54:59.958Z,99.99
2022-10-22T04:56:00.575Z,99.99
2022-10-22T04:57:00.849Z,99.99
2022-10-22T04:58:00.646Z,99.99
2022-10-22T04:59:00.426Z,99.99
2022-10-22T05:00:00.685Z,99.99
2022-10-22T05:01:00.004Z,99.99
2022-10-22T05:02:00.737Z,99.99
2022-10-22T05:03:00.601Z,99.99
2022-10-22T05:04:19.406Z,99.99
2022-10-22T05:05:00.628Z,99.99
2022-10-22T05:05:59.983Z,99.99
2022-10-22T05:06:59.916Z,99.99
2022-10-22T05:08:00.526Z,99.99
2022-10-22T05:09:00.833Z,99.99
2022-10-22T05:10:00.607Z,99.99
2022-10-22T05:11:00.386Z,99.99
2022-10-22T05:11:59.962Z,99.99
2022-10-22T05:13:00.460Z,99.99
2022-10-22T05:14:19.289Z,99.99
2022-10-22T05:15:00.498Z,99.99
2022-10-22T05:16:00.295Z,99.99
2022-10-22T05:16:59.798Z,99.99
2022-10-22T05:17:59.870Z,99.99
2022-10-22T05:19:00.664Z,99.99
2022-10-22T05:20:00.447Z,99.99
2022-10-22T05:20:59.326Z,99.99
2022-10-22T05:22:00.483Z,99.99
2022-10-22T05:22:59.482Z,99.99
2022-10-22T05:24:20.621Z,99.99
2022-10-22T05:25:00.367Z,99.99
2022-10-22T05:26:00.630Z,99.99
2022-10-22T05:26:59.007Z,99.99
2022-10-22T05:28:00.300Z,99.99
2022-10-22T05:28:59.985Z,99.99
2022-10-22T05:29:59.492Z,99.99
2022-10-22T05:31:00.534Z,99.99
2022-10-22T05:31:59.547Z,99.99
2022-10-22T05:33:00.592Z,99.99
2022-10-22T05:34:18.915Z,99.99
2022-10-22T05:35:00.120Z,99.99
2022-10-22T05:35:59.475Z,99.99
2022-10-22T05:37:00.172Z,99.99
2022-10-22T05:37:59.081Z,99.99
2022-10-22T05:39:00.299Z,99.99
2022-10-22T05:40:12.410Z,99.99
2022-10-22T05:41:00.516Z,99.99
2022-10-22T05:41:58.744Z,99.99
2022-10-22T05:43:00.406Z,99.99
2022-10-22T05:44:18.736Z,99.99
2022-10-22T05:45:00.456Z,99.99
2022-10-22T05:46:00.239Z,99.99
2022-10-22T05:46:59.500Z,99.99
2022-10-22T05:48:00.301Z,99.99
2022-10-22T05:49:00.125Z,99.99
2022-10-22T05:50:00.427Z,99.99
2022-10-22T05:51:00.211Z,99.99
2022-10-22T05:51:59.492Z,99.99
2022-10-22T05:52:59.515Z,99.99
2022-10-22T05:54:18.659Z,99.99
2022-10-22T05:55:02.405Z,99.99
2022-10-22T05:55:59.694Z,99.99
2022-10-22T05:56:59.274Z,99.99
2022-10-22T05:57:59.837Z,99.99
2022-10-22T05:58:59.621Z,99.99
2022-10-22T06:00:00.428Z,99.99
2022-10-22T06:01:00.222Z,99.99
2022-10-22T06:02:00.136Z,99.99
2022-10-22T06:02:59.831Z,99.99
2022-10-22T06:04:18.662Z,99.99
2022-10-22T06:04:59.428Z,99.99
2022-10-22T06:06:00.240Z,99.99
2022-10-22T06:06:59.240Z,99.99
2022-10-22T06:07:59.770Z,99.99
2022-10-22T06:09:00.117Z,99.99
2022-10-22T06:09:59.063Z,99.99
2022-10-22T06:11:00.259Z,99.99
2022-10-22T06:11:58.611Z,99.99
2022-10-22T06:12:59.375Z,99.99
2022-10-22T06:14:18.663Z,99.99
2022-10-22T06:14:59.923Z,99.99
2022-10-22T06:15:59.012Z,99.99
2022-10-22T06:16:59.217Z,99.99
2022-10-22T06:17:59.832Z,99.99
2022-10-22T06:19:00.113Z,99.99
2022-10-22T06:19:59.946Z,99.99
2022-10-22T06:20:59.675Z,99.99
2022-10-22T06:22:00.081Z,99.99
2022-10-22T06:22:59.315Z,99.99
2022-10-22T06:24:18.658Z,99.99
2022-10-22T06:24:59.174Z,99.99
2022-10-22T06:25:59.470Z,99.99
2022-10-22T06:26:58.327Z,99.99
2022-10-22T06:27:58.676Z,99.99
2022-10-22T06:28:58.409Z,99.99
2022-10-22T06:29:58.222Z,99.99
2022-10-22T06:30:58.481Z,99.99
2022-10-22T06:31:58.273Z,99.99
2022-10-22T06:32:58.514Z,99.99
2022-10-22T06:34:18.298Z,99.99
2022-10-22T06:34:58.565Z,99.99
2022-10-22T06:35:58.279Z,99.99
2022-10-22T06:36:58.005Z,99.99
2022-10-22T06:37:58.260Z,99.99
2022-10-22T06:38:57.992Z,99.99
2022-10-22T06:39:58.267Z,99.99
2022-10-22T06:40:58.002Z,99.94
2022-10-22T06:41:58.251Z,99.94
2022-10-22T06:42:57.979Z,99.94
2022-10-22T06:44:18.329Z,99.84
2022-10-22T06:44:58.117Z,99.84
2022-10-22T06:45:59.044Z,99.84
2022-10-22T06:46:58.290Z,99.74
2022-10-22T06:47:58.314Z,99.74
2022-10-22T06:48:58.050Z,99.63
2022-10-22T06:49:58.293Z,99.63
2022-10-22T06:50:58.042Z,99.63
2022-10-22T06:51:58.284Z,99.63
2022-10-22T06:52:58.033Z,99.49
2022-10-22T06:54:19.770Z,99.38
2022-10-22T06:54:58.287Z,99.38
2022-10-22T06:55:58.076Z,99.38
2022-10-22T06:56:57.807Z,99.28
2022-10-22T06:57:58.057Z,99.28
2022-10-22T06:58:57.793Z,99.18
2022-10-22T06:59:58.093Z,99.18
2022-10-22T07:00:57.887Z,99.18
2022-10-22T07:01:58.577Z,99.18
2022-10-22T07:03:07.189Z,99.18
2022-10-22T07:04:19.594Z,98.97
2022-10-22T07:04:57.889Z,98.88
2022-10-22T07:05:58.481Z,98.97
2022-10-22T07:06:58.160Z,98.88
2022-10-22T07:07:57.972Z,98.97
2022-10-22T07:08:58.382Z,98.88
2022-10-22T07:09:57.969Z,98.77
2022-10-22T07:10:57.701Z,98.63
2022-10-22T07:11:58.010Z,98.52
2022-10-22T07:12:58.043Z,98.43
2022-10-22T07:14:18.584Z,98.12
2022-10-22T07:14:59.577Z,97.87
2022-10-22T07:15:59.423Z,97.77
2022-10-22T07:16:59.436Z,97.67
2022-10-22T07:17:59.243Z,97.36
2022-10-22T07:18:59.520Z,97.26
2022-10-22T07:19:58.572Z,97.02
2022-10-22T07:20:59.201Z,96.61
2022-10-22T07:21:59.522Z,96.71
2022-10-22T07:22:59.347Z,96.71
2022-10-22T07:24:17.657Z,96.71
2022-10-22T07:24:59.977Z,96.61
2022-10-22T07:25:58.579Z,96.20
2022-10-22T07:26:59.065Z,96.20
2022-10-22T07:27:59.430Z,96.10
2022-10-22T07:28:59.211Z,96.10
2022-10-22T07:29:59.049Z,95.90
2022-10-22T07:30:59.354Z,95.75
2022-10-22T07:31:58.685Z,95.75
2022-10-22T07:32:59.029Z,95.45
2022-10-22T07:34:17.855Z,95.45
2022-10-22T07:34:59.111Z,95.55
2022-10-22T07:35:58.921Z,95.25
2022-10-22T07:36:59.256Z,94.84
2022-10-22T07:37:58.549Z,94.84
2022-10-22T07:38:58.915Z,94.94
2022-10-22T07:40:02.899Z,94.84
2022-10-22T07:40:59.987Z,94.94
2022-10-22T07:41:59.280Z,95.04
2022-10-22T07:42:59.113Z,95.04
2022-10-22T07:44:17.439Z,94.64
2022-10-22T07:44:59.180Z,94.64
2022-10-22T07:45:58.953Z,94.74
2022-10-22T07:46:59.256Z,94.64
2022-10-22T07:47:59.046Z,94.64
2022-10-22T07:48:59.391Z,94.84
2022-10-22T07:49:58.084Z,94.94
2022-10-22T07:50:58.585Z,94.54
2022-10-22T07:51:58.913Z,94.64
2022-10-22T07:52:59.215Z,94.64
2022-10-22T07:54:16.792Z,94.54
2022-10-22T07:54:58.097Z,94.43
2022-10-22T07:55:58.842Z,94.39
2022-10-22T07:56:58.604Z,94.43
2022-10-22T07:57:58.936Z,94.29
2022-10-22T07:58:58.803Z,94.39
2022-10-22T07:59:59.981Z,94.19
2022-10-22T08:00:58.123Z,94.19
2022-10-22T08:01:58.673Z,93.99
2022-10-22T08:02:58.994Z,94.19
2022-10-22T08:04:17.283Z,94.09
2022-10-22T08:04:59.085Z,94.09
2022-10-22T08:05:58.115Z,94.19
2022-10-22T08:06:58.096Z,93.99
2022-10-22T08:07:59.085Z,93.88
2022-10-22T08:08:58.854Z,93.68
2022-10-22T08:09:58.605Z,93.78
2022-10-22T08:10:58.962Z,93.68
2022-10-22T08:11:58.853Z,93.58
2022-10-22T08:12:58.117Z,93.38
2022-10-22T08:14:18.970Z,93.33
2022-10-22T08:14:58.836Z,93.03
2022-10-22T08:15:58.598Z,93.03
2022-10-22T08:16:58.923Z,92.24
2022-10-22T08:17:58.191Z,91.18
2022-10-22T08:18:58.100Z,90.03
2022-10-22T08:19:58.790Z,87.48
2022-10-22T08:20:58.585Z,85.38
2022-10-22T08:21:58.895Z,83.25
2022-10-22T08:22:58.805Z,80.47
2022-10-22T08:24:17.063Z,77.45
2022-10-22T08:24:58.801Z,75.68
2022-10-22T08:25:58.664Z,77.28
2022-10-22T08:26:58.508Z,74.60
2022-10-22T08:27:58.836Z,72.66
2022-10-22T08:28:58.142Z,67.83
2022-10-22T08:29:57.612Z,67.76
2022-10-22T08:30:58.052Z,65.67
2022-10-22T08:31:57.922Z,65.14
2022-10-22T08:32:58.243Z,65.04
2022-10-22T08:34:18.500Z,64.72
2022-10-22T08:34:57.814Z,63.06
2022-10-22T08:35:57.631Z,60.87
2022-10-22T08:36:58.384Z,62.52
2022-10-22T08:37:58.703Z,64.47
2022-10-22T08:38:58.554Z,66.53
2022-10-22T08:39:58.338Z,68.59
2022-10-22T08:40:58.631Z,69.79
2022-10-22T08:41:58.444Z,72.47
2022-10-22T08:42:58.288Z,73.44
2022-10-22T08:44:17.099Z,75.21
2022-10-22T08:44:58.384Z,75.65
2022-10-22T08:45:57.416Z,75.89
2022-10-22T08:46:58.516Z,76.63
2022-10-22T08:47:57.616Z,77.33
2022-10-22T08:48:58.682Z,77.94
2022-10-22T08:49:58.420Z,78.10
2022-10-22T08:50:58.220Z,77.86
2022-10-22T08:51:58.558Z,76.86
2022-10-22T08:52:58.358Z,76.76
2022-10-22T08:54:17.171Z,77.39
2022-10-22T08:54:58.391Z,77.70
2022-10-22T08:55:58.184Z,77.50
2022-10-22T08:56:58.001Z,78.50
2022-10-22T08:57:58.277Z,77.36
2022-10-22T08:58:58.125Z,76.04
2022-10-22T08:59:57.631Z,74.60
2022-10-22T09:00:58.265Z,74.17
2022-10-22T09:01:58.036Z,74.51
2022-10-22T09:02:58.807Z,75.34
2022-10-22T09:04:16.627Z,74.77
2022-10-22T09:04:58.353Z,75.21
2022-10-22T09:05:58.169Z,76.42
2022-10-22T09:06:58.513Z,77.16
2022-10-22T09:07:58.361Z,78.16
2022-10-22T09:08:58.187Z,78.40
2022-10-22T09:09:57.985Z,79.10
2022-10-22T09:10:57.967Z,79.91
2022-10-22T09:11:57.633Z,79.85
2022-10-22T09:12:58.053Z,79.99
2022-10-22T09:14:16.881Z,80.49
2022-10-22T09:14:58.167Z,80.29
2022-10-22T09:15:57.990Z,80.29
2022-10-22T09:16:58.887Z,80.43
2022-10-22T09:17:57.130Z,80.58
2022-10-22T09:18:57.966Z,80.58
2022-10-22T09:19:58.271Z,81.53
2022-10-22T09:20:58.068Z,82.14
2022-10-22T09:21:57.965Z,82.78
2022-10-22T09:22:58.289Z,82.68
2022-10-22T09:24:16.613Z,81.98
2022-10-22T09:24:58.354Z,82.04
2022-10-22T09:25:57.370Z,81.23
2022-10-22T09:26:57.933Z,80.58
2022-10-22T09:27:58.282Z,80.79
2022-10-22T09:28:58.054Z,80.75
2022-10-22T09:29:57.846Z,79.61
2022-10-22T09:31:57.996Z,77.48
2022-10-22T09:32:57.792Z,75.31
2022-10-22T09:34:16.666Z,73.10
2022-10-22T09:34:57.868Z,71.49
2022-10-22T09:35:57.664Z,70.99
2022-10-22T09:36:57.475Z,71.33
2022-10-22T09:37:57.759Z,71.16
2022-10-22T09:38:57.584Z,72.63
2022-10-22T09:39:57.865Z,72.70
2022-10-22T09:40:57.162Z,74.44
2022-10-22T09:41:57.540Z,75.71
2022-10-22T09:42:57.834Z,76.86
2022-10-22T09:44:16.197Z,78.30
2022-10-22T09:44:57.888Z,78.34
2022-10-22T09:45:57.147Z,79.38
2022-10-22T09:46:57.154Z,80.39
2022-10-22T09:48:01.954Z,80.79
2022-10-22T09:48:57.895Z,80.15
2022-10-22T09:49:56.209Z,80.65
2022-10-22T09:50:57.903Z,80.79
2022-10-22T09:51:57.749Z,80.69
2022-10-22T09:52:57.546Z,80.93
2022-10-22T09:54:16.370Z,81.63
2022-10-22T09:54:57.567Z,81.84
2022-10-22T09:55:57.879Z,82.04
2022-10-22T09:56:57.695Z,82.07
2022-10-22T09:57:56.665Z,82.58
2022-10-22T09:58:57.825Z,83.18
2022-10-22T09:59:57.605Z,83.18
2022-10-22T10:00:57.435Z,83.39
2022-10-22T10:02:04.970Z,83.28
2022-10-22T10:02:58.045Z,82.92
2022-10-22T10:04:16.379Z,82.62
2022-10-22T10:04:56.775Z,82.62
2022-10-22T10:06:00.184Z,82.92
2022-10-22T10:06:58.157Z,83.42
2022-10-22T10:07:57.448Z,83.72
2022-10-22T10:08:56.695Z,84.03
2022-10-22T10:09:57.100Z,84.03
2022-10-22T10:10:57.374Z,84.74
2022-10-22T10:11:57.680Z,83.87
2022-10-22T10:12:57.520Z,83.66
2022-10-22T10:14:16.334Z,84.37
2022-10-22T10:14:57.557Z,83.97
2022-10-22T10:15:57.351Z,83.66
2022-10-22T10:16:57.665Z,83.56
2022-10-22T10:17:57.472Z,84.27
2022-10-22T10:18:57.298Z,83.76
2022-10-22T10:20:00.060Z,84.17
2022-10-22T10:20:56.966Z,83.66
2022-10-22T10:21:55.712Z,83.97
2022-10-22T10:22:55.953Z,83.87
2022-10-22T10:24:17.247Z,83.36
2022-10-22T10:24:57.223Z,83.76
2022-10-22T10:25:55.947Z,83.66
2022-10-22T10:26:57.400Z,83.26
2022-10-22T10:27:55.705Z,83.97
2022-10-22T10:28:55.920Z,84.37
2022-10-22T10:29:55.690Z,84.23
2022-10-22T10:30:55.929Z,83.83
2022-10-22T10:31:55.694Z,83.18
2022-10-22T10:32:55.965Z,83.28
2022-10-22T10:34:16.110Z,82.38
2022-10-22T10:34:55.871Z,82.28
2022-10-22T10:35:55.636Z,82.18
2022-10-22T10:36:55.875Z,82.68
2022-10-22T10:37:55.653Z,82.68
2022-10-22T10:38:55.915Z,82.28
2022-10-22T10:39:55.678Z,82.78
2022-10-22T10:40:55.941Z,83.28
2022-10-22T10:41:55.701Z,82.78
2022-10-22T10:42:55.949Z,83.28
2022-10-22T10:44:15.784Z,83.42
2022-10-22T10:44:56.056Z,83.93
2022-10-22T10:45:56.031Z,83.93
2022-10-22T10:46:56.917Z,83.12
2022-10-22T10:47:55.822Z,83.62
2022-10-22T10:48:55.568Z,83.22
2022-10-22T10:49:55.837Z,82.62
2022-10-22T10:50:55.595Z,82.88
2022-10-22T10:51:55.861Z,82.48
2022-10-22T10:52:55.759Z,81.67
2022-10-22T10:54:15.577Z,81.19
2022-10-22T10:54:55.825Z,81.19
2022-10-22T10:55:55.601Z,81.19
2022-10-22T10:56:55.845Z,81.19
2022-10-22T10:57:55.628Z,81.63
2022-10-22T10:58:55.386Z,81.63
2022-10-22T10:59:55.653Z,81.19
2022-10-22T11:00:55.392Z,81.29
2022-10-22T11:01:55.745Z,79.68
2022-10-22T11:04:15.681Z,79.81
2022-10-22T11:04:55.720Z,79.91
2022-10-22T11:05:56.915Z,79.00
2022-10-22T11:07:10.632Z,79.00
2022-10-22T11:07:56.452Z,79.06
2022-10-22T11:09:01.500Z,76.91
2022-10-22T11:09:55.264Z,73.29
2022-10-22T11:10:55.524Z,70.66
2022-10-22T11:11:55.278Z,69.66
2022-10-22T11:12:56.228Z,69.32
2022-10-22T11:14:32.748Z,68.19
2022-10-22T11:15:00.398Z,67.13
2022-10-22T11:16:07.661Z,64.18
2022-10-22T11:16:55.545Z,64.72
2022-10-22T11:18:24.806Z,63.06
2022-10-22T11:18:55.532Z,62.63
2022-10-22T11:19:59.948Z,62.23
2022-10-22T11:20:57.027Z,61.25
2022-10-22T11:21:55.954Z,60.39
2022-10-22T11:23:18.228Z,60.52
2022-10-22T11:24:16.382Z,59.36
2022-10-22T11:24:55.116Z,59.47
2022-10-22T11:25:55.357Z,59.07
2022-10-22T11:26:55.116Z,58.23
2022-10-22T11:28:03.275Z,59.82
2022-10-22T11:28:56.121Z,60.55
2022-10-22T11:29:55.392Z,61.60
2022-10-22T11:30:55.139Z,63.38
2022-10-22T11:31:55.456Z,64.94
2022-10-22T11:32:55.218Z,65.64
2022-10-22T11:34:47.983Z,63.15
2022-10-22T11:35:36.758Z,62.16
2022-10-22T11:35:54.762Z,60.28
2022-10-22T11:36:55.019Z,62.59
2022-10-22T11:37:55.299Z,63.85
2022-10-22T11:38:55.024Z,65.61
2022-10-22T11:39:56.713Z,66.20
2022-10-22T11:40:55.723Z,68.43
2022-10-22T11:41:55.308Z,69.29
2022-10-22T11:42:55.079Z,69.82
2022-10-22T11:44:15.391Z,70.59
2022-10-22T11:44:54.354Z,70.62
2022-10-22T11:45:55.107Z,72.03
2022-10-22T11:46:55.380Z,72.83
2022-10-22T11:47:55.123Z,70.83
2022-10-22T11:48:54.875Z,69.39
2022-10-22T11:49:55.186Z,69.12
2022-10-22T11:51:34.934Z,68.79
2022-10-22T11:51:55.255Z,66.67
2022-10-22T11:52:55.024Z,65.01
2022-10-22T11:54:15.288Z,65.44
2022-10-22T11:54:55.043Z,65.08
2022-10-22T11:55:54.786Z,65.34
2022-10-22T11:56:55.029Z,66.66
2022-10-22T11:57:54.783Z,66.39
2022-10-22T11:58:55.124Z,66.39
2022-10-22T11:59:54.819Z,67.46
2022-10-22T12:00:56.523Z,66.70
2022-10-22T12:01:56.353Z,66.39
2022-10-22T12:02:55.100Z,67.23
2022-10-22T12:04:15.850Z,66.89
2022-10-22T12:04:55.213Z,67.13
2022-10-22T12:05:54.914Z,68.46
2022-10-22T12:06:54.681Z,69.16
2022-10-22T12:07:54.919Z,70.39
2022-10-22T12:08:54.929Z,70.73
2022-10-22T12:09:55.925Z,69.82
2022-10-22T12:10:54.693Z,70.83
2022-10-22T12:11:54.950Z,72.03
2022-10-22T12:12:54.722Z,71.16
2022-10-22T12:14:16.047Z,71.80
2022-10-22T12:14:54.041Z,72.60
2022-10-22T12:15:56.293Z,73.54
2022-10-22T12:16:56.930Z,73.24
2022-10-22T12:17:54.810Z,73.94
2022-10-22T12:18:54.664Z,73.94
2022-10-22T12:19:57.434Z,74.04
2022-10-22T12:20:54.684Z,74.54
2022-10-22T12:21:54.933Z,74.74
2022-10-22T12:22:54.683Z,74.04
2022-10-22T12:24:14.965Z,74.48
2022-10-22T12:24:53.962Z,74.77
2022-10-22T12:25:54.714Z,75.27
2022-10-22T12:26:54.520Z,74.88
2022-10-22T12:27:54.769Z,75.42
2022-10-22T12:28:55.965Z,75.71
2022-10-22T12:29:55.469Z,74.85
2022-10-22T12:30:54.665Z,75.15
2022-10-22T12:31:54.805Z,75.25
2022-10-22T12:32:54.626Z,75.75
2022-10-22T12:34:14.891Z,76.56
2022-10-22T12:34:55.615Z,76.25
2022-10-22T12:35:55.392Z,76.32
2022-10-22T12:36:56.220Z,76.52
2022-10-22T12:37:54.644Z,76.72
2022-10-22T12:38:55.045Z,76.12
2022-10-22T12:39:55.271Z,76.02
2022-10-22T12:40:55.445Z,76.52
2022-10-22T12:41:54.974Z,76.21
2022-10-22T12:42:56.070Z,75.31
2022-10-22T12:44:14.914Z,75.21
2022-10-22T12:44:55.270Z,75.71
2022-10-22T12:45:55.269Z,75.92
2022-10-22T12:46:57.057Z,76.42
2022-10-22T12:47:55.273Z,76.52
2022-10-22T12:48:55.888Z,75.62
2022-10-22T12:49:55.669Z,76.35
2022-10-22T12:50:55.987Z,76.76
2022-10-22T12:51:55.811Z,77.36
2022-10-22T12:52:56.483Z,76.56
2022-10-22T12:54:14.223Z,76.76
2022-10-22T12:54:55.852Z,76.96
2022-10-22T12:55:55.624Z,76.96